sensor_id;sensor_type;location;lat;lon;timestamp;temperature;humidity
10986;DHT22;5546;48.714;8.738;2023-04-03T00:03:36;7.80;85.00
10986;DHT22;5546;48.714;8.738;2023-04-03T00:06:03;7.80;85.60
10986;DHT22;5546;48.714;8.738;2023-04-03T00:08:29;7.80;85.60
10986;DHT22;5546;48.714;8.738;2023-04-03T00:10:56;7.90;85.50
10986;DHT22;5546;48.714;8.738;2023-04-03T00:13:22;7.80;84.70
10986;DHT22;5546;48.714;8.738;2023-04-03T00:18:14;8.00;84.70
10986;DHT22;5546;48.714;8.738;2023-04-03T00:23:06;7.70;86.40
10986;DHT22;5546;48.714;8.738;2023-04-03T00:25:32;7.30;87.30
10986;DHT22;5546;48.714;8.738;2023-04-03T00:27:57;7.20;88.60
10986;DHT22;5546;48.714;8.738;2023-04-03T00:30:23;7.60;88.40
10986;DHT22;5546;48.714;8.738;2023-04-03T00:32:49;7.80;86.00
10986;DHT22;5546;48.714;8.738;2023-04-03T00:35:18;8.00;86.00
10986;DHT22;5546;48.714;8.738;2023-04-03T00:37:44;8.00;84.60
10986;DHT22;5546;48.714;8.738;2023-04-03T00:40:11;7.80;85.70
10986;DHT22;5546;48.714;8.738;2023-04-03T00:42:38;7.70;86.40
10986;DHT22;5546;48.714;8.738;2023-04-03T00:47:30;7.10;86.90
10986;DHT22;5546;48.714;8.738;2023-04-03T00:49:56;7.30;87.90
10986;DHT22;5546;48.714;8.738;2023-04-03T00:52:26;7.60;87.10
10986;DHT22;5546;48.714;8.738;2023-04-03T00:54:54;7.40;87.00
10986;DHT22;5546;48.714;8.738;2023-04-03T00:57:22;7.40;87.20
10986;DHT22;5546;48.714;8.738;2023-04-03T00:59:57;7.30;87.00
10986;DHT22;5546;48.714;8.738;2023-04-03T01:02:25;6.90;88.50
10986;DHT22;5546;48.714;8.738;2023-04-03T01:04:51;7.00;87.50
10986;DHT22;5546;48.714;8.738;2023-04-03T01:07:22;6.80;87.90
10986;DHT22;5546;48.714;8.738;2023-04-03T01:09:52;7.00;88.30
10986;DHT22;5546;48.714;8.738;2023-04-03T01:12:21;7.10;86.90
10986;DHT22;5546;48.714;8.738;2023-04-03T01:14:53;7.10;87.50
10986;DHT22;5546;48.714;8.738;2023-04-03T01:17:36;7.30;86.90
10986;DHT22;5546;48.714;8.738;2023-04-03T01:25:36;7.00;88.10
10986;DHT22;5546;48.714;8.738;2023-04-03T01:28:06;7.10;87.90
10986;DHT22;5546;48.714;8.738;2023-04-03T01:30:36;7.50;86.80
10986;DHT22;5546;48.714;8.738;2023-04-03T01:33:03;7.60;85.90
10986;DHT22;5546;48.714;8.738;2023-04-03T01:35:29;7.70;84.90
10986;DHT22;5546;48.714;8.738;2023-04-03T01:37:54;7.50;85.60
10986;DHT22;5546;48.714;8.738;2023-04-03T01:40:20;7.50;85.70
10986;DHT22;5546;48.714;8.738;2023-04-03T01:42:45;7.70;85.50
10986;DHT22;5546;48.714;8.738;2023-04-03T01:45:11;7.60;85.20
10986;DHT22;5546;48.714;8.738;2023-04-03T01:47:37;7.50;85.70
10986;DHT22;5546;48.714;8.738;2023-04-03T01:50:02;7.30;87.50
10986;DHT22;5546;48.714;8.738;2023-04-03T01:52:28;7.40;87.30
10986;DHT22;5546;48.714;8.738;2023-04-03T01:54:54;7.50;86.50
10986;DHT22;5546;48.714;8.738;2023-04-03T01:59:45;7.40;86.80
10986;DHT22;5546;48.714;8.738;2023-04-03T02:02:11;7.50;87.10
10986;DHT22;5546;48.714;8.738;2023-04-03T02:04:37;7.40;86.30
10986;DHT22;5546;48.714;8.738;2023-04-03T02:07:03;7.50;86.40
10986;DHT22;5546;48.714;8.738;2023-04-03T02:09:29;7.70;86.10
10986;DHT22;5546;48.714;8.738;2023-04-03T02:11:54;7.50;86.40
10986;DHT22;5546;48.714;8.738;2023-04-03T02:14:20;7.70;86.10
10986;DHT22;5546;48.714;8.738;2023-04-03T02:16:47;7.60;86.10
10986;DHT22;5546;48.714;8.738;2023-04-03T02:19:12;7.50;86.60
10986;DHT22;5546;48.714;8.738;2023-04-03T02:21:38;7.50;86.50
10986;DHT22;5546;48.714;8.738;2023-04-03T02:24:03;7.50;86.30
10986;DHT22;5546;48.714;8.738;2023-04-03T02:26:29;7.70;86.30
10986;DHT22;5546;48.714;8.738;2023-04-03T02:28:54;7.90;85.50
10986;DHT22;5546;48.714;8.738;2023-04-03T02:31:20;7.80;85.10
10986;DHT22;5546;48.714;8.738;2023-04-03T02:33:46;7.60;85.10
10986;DHT22;5546;48.714;8.738;2023-04-03T02:36:11;7.60;85.20
10986;DHT22;5546;48.714;8.738;2023-04-03T02:41:05;7.30;87.10
10986;DHT22;5546;48.714;8.738;2023-04-03T02:43:31;7.40;86.90
10986;DHT22;5546;48.714;8.738;2023-04-03T02:45:57;7.50;86.40
10986;DHT22;5546;48.714;8.738;2023-04-03T02:48:23;7.30;86.70
10986;DHT22;5546;48.714;8.738;2023-04-03T02:53:15;7.00;87.20
10986;DHT22;5546;48.714;8.738;2023-04-03T02:55:41;7.20;87.50
10986;DHT22;5546;48.714;8.738;2023-04-03T02:58:06;7.20;86.80
10986;DHT22;5546;48.714;8.738;2023-04-03T03:00:33;7.40;86.90
10986;DHT22;5546;48.714;8.738;2023-04-03T03:02:58;7.50;86.10
10986;DHT22;5546;48.714;8.738;2023-04-03T03:05:24;7.30;85.70
10986;DHT22;5546;48.714;8.738;2023-04-03T03:07:49;7.20;86.60
10986;DHT22;5546;48.714;8.738;2023-04-03T03:10:15;6.90;87.60
10986;DHT22;5546;48.714;8.738;2023-04-03T03:15:07;7.00;87.90
10986;DHT22;5546;48.714;8.738;2023-04-03T03:17:33;7.00;88.20
10986;DHT22;5546;48.714;8.738;2023-04-03T03:19:58;7.00;87.40
10986;DHT22;5546;48.714;8.738;2023-04-03T03:22:25;7.00;87.80
10986;DHT22;5546;48.714;8.738;2023-04-03T03:24:51;6.60;88.20
10986;DHT22;5546;48.714;8.738;2023-04-03T03:27:16;6.70;88.60
10986;DHT22;5546;48.714;8.738;2023-04-03T03:29:42;6.90;88.50
10986;DHT22;5546;48.714;8.738;2023-04-03T03:32:08;6.80;89.00
10986;DHT22;5546;48.714;8.738;2023-04-03T03:34:33;7.00;88.30
10986;DHT22;5546;48.714;8.738;2023-04-03T03:36:59;7.00;87.90
10986;DHT22;5546;48.714;8.738;2023-04-03T03:39:24;6.70;88.70
10986;DHT22;5546;48.714;8.738;2023-04-03T03:41:50;6.50;89.20
10986;DHT22;5546;48.714;8.738;2023-04-03T03:44:15;6.70;90.00
10986;DHT22;5546;48.714;8.738;2023-04-03T03:49:07;7.10;88.60
10986;DHT22;5546;48.714;8.738;2023-04-03T03:51:32;7.20;88.60
10986;DHT22;5546;48.714;8.738;2023-04-03T03:53:58;7.30;88.00
10986;DHT22;5546;48.714;8.738;2023-04-03T03:56:24;7.40;87.40
10986;DHT22;5546;48.714;8.738;2023-04-03T04:01:16;6.80;88.40
10986;DHT22;5546;48.714;8.738;2023-04-03T04:03:42;7.00;88.70
10986;DHT22;5546;48.714;8.738;2023-04-03T04:06:08;7.10;88.00
10986;DHT22;5546;48.714;8.738;2023-04-03T04:08:33;7.00;87.60
10986;DHT22;5546;48.714;8.738;2023-04-03T04:10:59;6.80;88.40
10986;DHT22;5546;48.714;8.738;2023-04-03T04:13:24;6.90;88.60
10986;DHT22;5546;48.714;8.738;2023-04-03T04:15:50;7.00;88.40
10986;DHT22;5546;48.714;8.738;2023-04-03T04:18:15;6.80;87.90
10986;DHT22;5546;48.714;8.738;2023-04-03T04:20:41;6.80;88.00
10986;DHT22;5546;48.714;8.738;2023-04-03T04:23:06;7.00;88.10
10986;DHT22;5546;48.714;8.738;2023-04-03T04:25:32;7.00;88.20
10986;DHT22;5546;48.714;8.738;2023-04-03T04:27:58;6.90;87.90
10986;DHT22;5546;48.714;8.738;2023-04-03T04:30:23;6.80;88.00
10986;DHT22;5546;48.714;8.738;2023-04-03T04:32:49;6.80;87.50
10986;DHT22;5546;48.714;8.738;2023-04-03T04:35:14;6.90;88.00
10986;DHT22;5546;48.714;8.738;2023-04-03T04:40:07;7.30;86.50
10986;DHT22;5546;48.714;8.738;2023-04-03T04:42:32;7.40;85.00
10986;DHT22;5546;48.714;8.738;2023-04-03T04:44:58;7.40;84.70
10986;DHT22;5546;48.714;8.738;2023-04-03T04:49:49;7.50;83.80
10986;DHT22;5546;48.714;8.738;2023-04-03T04:52:15;7.50;83.80
10986;DHT22;5546;48.714;8.738;2023-04-03T04:54:41;7.50;85.30
10986;DHT22;5546;48.714;8.738;2023-04-03T04:57:06;7.30;84.40
10986;DHT22;5546;48.714;8.738;2023-04-03T04:59:32;7.50;85.10
10986;DHT22;5546;48.714;8.738;2023-04-03T05:01:57;7.50;83.70
10986;DHT22;5546;48.714;8.738;2023-04-03T05:06:49;7.20;85.40
10986;DHT22;5546;48.714;8.738;2023-04-03T05:09:14;7.50;84.60
10986;DHT22;5546;48.714;8.738;2023-04-03T05:11:40;7.50;84.00
10986;DHT22;5546;48.714;8.738;2023-04-03T05:14:05;7.70;84.50
10986;DHT22;5546;48.714;8.738;2023-04-03T05:16:32;7.50;82.80
10986;DHT22;5546;48.714;8.738;2023-04-03T05:21:24;7.20;83.40
10986;DHT22;5546;48.714;8.738;2023-04-03T05:23:51;7.20;83.60
10986;DHT22;5546;48.714;8.738;2023-04-03T05:26:17;7.00;83.20
10986;DHT22;5546;48.714;8.738;2023-04-03T05:28:43;7.20;83.90
10986;DHT22;5546;48.714;8.738;2023-04-03T05:31:08;7.40;83.90
10986;DHT22;5546;48.714;8.738;2023-04-03T05:33:34;7.60;83.00
10986;DHT22;5546;48.714;8.738;2023-04-03T05:36:06;7.40;83.50
10986;DHT22;5546;48.714;8.738;2023-04-03T05:38:32;7.80;83.30
10986;DHT22;5546;48.714;8.738;2023-04-03T05:40:57;7.50;83.20
10986;DHT22;5546;48.714;8.738;2023-04-03T05:45:49;7.70;82.30
10986;DHT22;5546;48.714;8.738;2023-04-03T05:48:15;7.60;82.10
10986;DHT22;5546;48.714;8.738;2023-04-03T05:50:41;7.80;81.60
10986;DHT22;5546;48.714;8.738;2023-04-03T05:53:14;7.30;82.30
10986;DHT22;5546;48.714;8.738;2023-04-03T05:55:41;7.50;83.70
10986;DHT22;5546;48.714;8.738;2023-04-03T05:58:07;7.80;82.80
10986;DHT22;5546;48.714;8.738;2023-04-03T06:00:32;8.20;81.80
10986;DHT22;5546;48.714;8.738;2023-04-03T06:02:58;8.10;81.80
10986;DHT22;5546;48.714;8.738;2023-04-03T06:05:23;7.80;82.10
10986;DHT22;5546;48.714;8.738;2023-04-03T06:12:42;7.90;82.00
10986;DHT22;5546;48.714;8.738;2023-04-03T06:15:08;8.00;82.00
10986;DHT22;5546;48.714;8.738;2023-04-03T06:17:36;8.10;81.70
10986;DHT22;5546;48.714;8.738;2023-04-03T06:22:29;9.40;79.80
10986;DHT22;5546;48.714;8.738;2023-04-03T06:24:55;11.10;75.00
10986;DHT22;5546;48.714;8.738;2023-04-03T06:27:21;11.10;75.50
10986;DHT22;5546;48.714;8.738;2023-04-03T06:29:46;12.40;68.30
10986;DHT22;5546;48.714;8.738;2023-04-03T06:32:13;13.20;64.10
10986;DHT22;5546;48.714;8.738;2023-04-03T06:34:38;13.20;63.80
10986;DHT22;5546;48.714;8.738;2023-04-03T06:37:04;12.90;63.40
10986;DHT22;5546;48.714;8.738;2023-04-03T06:39:30;12.70;63.30
10986;DHT22;5546;48.714;8.738;2023-04-03T06:41:55;12.60;63.50
10986;DHT22;5546;48.714;8.738;2023-04-03T06:44:21;12.10;65.30
10986;DHT22;5546;48.714;8.738;2023-04-03T06:46:46;11.70;64.20
10986;DHT22;5546;48.714;8.738;2023-04-03T06:49:12;11.70;64.80
10986;DHT22;5546;48.714;8.738;2023-04-03T06:51:37;11.20;64.60
10986;DHT22;5546;48.714;8.738;2023-04-03T06:54:04;10.00;65.80
10986;DHT22;5546;48.714;8.738;2023-04-03T06:56:31;9.60;67.70
10986;DHT22;5546;48.714;8.738;2023-04-03T06:58:57;9.40;69.30
10986;DHT22;5546;48.714;8.738;2023-04-03T07:01:28;9.00;71.30
10986;DHT22;5546;48.714;8.738;2023-04-03T07:03:54;8.70;71.10
10986;DHT22;5546;48.714;8.738;2023-04-03T07:06:20;8.80;71.70
10986;DHT22;5546;48.714;8.738;2023-04-03T07:08:46;9.70;70.30
10986;DHT22;5546;48.714;8.738;2023-04-03T07:11:13;10.60;67.80
10986;DHT22;5546;48.714;8.738;2023-04-03T07:13:39;10.80;66.50
10986;DHT22;5546;48.714;8.738;2023-04-03T07:16:05;10.80;66.50
10986;DHT22;5546;48.714;8.738;2023-04-03T07:18:32;10.50;66.70
10986;DHT22;5546;48.714;8.738;2023-04-03T07:20:58;9.80;68.00
10986;DHT22;5546;48.714;8.738;2023-04-03T07:23:24;9.30;70.20
10986;DHT22;5546;48.714;8.738;2023-04-03T07:25:50;9.70;69.40
10986;DHT22;5546;48.714;8.738;2023-04-03T07:28:17;9.10;70.00
10986;DHT22;5546;48.714;8.738;2023-04-03T07:30:51;8.90;71.30
10986;DHT22;5546;48.714;8.738;2023-04-03T07:33:18;9.00;72.20
10986;DHT22;5546;48.714;8.738;2023-04-03T07:35:44;9.40;71.20
10986;DHT22;5546;48.714;8.738;2023-04-03T07:38:11;9.60;70.30
10986;DHT22;5546;48.714;8.738;2023-04-03T07:40:37;9.40;70.40
10986;DHT22;5546;48.714;8.738;2023-04-03T07:43:05;9.10;71.30
10986;DHT22;5546;48.714;8.738;2023-04-03T07:45:31;8.90;72.30
10986;DHT22;5546;48.714;8.738;2023-04-03T07:47:57;9.10;72.10
10986;DHT22;5546;48.714;8.738;2023-04-03T07:50:22;9.20;71.40
10986;DHT22;5546;48.714;8.738;2023-04-03T07:52:48;9.30;72.40
10986;DHT22;5546;48.714;8.738;2023-04-03T07:55:14;8.90;72.00
10986;DHT22;5546;48.714;8.738;2023-04-03T07:57:40;8.80;73.10
10986;DHT22;5546;48.714;8.738;2023-04-03T08:00:07;9.10;73.00
10986;DHT22;5546;48.714;8.738;2023-04-03T08:02:32;8.50;73.20
10986;DHT22;5546;48.714;8.738;2023-04-03T08:04:58;8.50;74.00
10986;DHT22;5546;48.714;8.738;2023-04-03T08:07:24;8.90;74.50
10986;DHT22;5546;48.714;8.738;2023-04-03T08:09:50;8.80;74.30
10986;DHT22;5546;48.714;8.738;2023-04-03T08:12:16;9.50;73.20
10986;DHT22;5546;48.714;8.738;2023-04-03T08:14:41;9.60;70.60
10986;DHT22;5546;48.714;8.738;2023-04-03T08:17:08;9.30;71.70
10986;DHT22;5546;48.714;8.738;2023-04-03T08:19:37;9.00;73.50
10986;DHT22;5546;48.714;8.738;2023-04-03T08:22:03;9.30;73.00
10986;DHT22;5546;48.714;8.738;2023-04-03T08:24:30;9.40;72.70
10986;DHT22;5546;48.714;8.738;2023-04-03T08:26:56;9.10;73.60
10986;DHT22;5546;48.714;8.738;2023-04-03T08:31:48;8.90;75.10
10986;DHT22;5546;48.714;8.738;2023-04-03T08:34:15;8.60;75.10
10986;DHT22;5546;48.714;8.738;2023-04-03T08:36:41;8.10;76.50
10986;DHT22;5546;48.714;8.738;2023-04-03T08:39:07;8.20;76.10
10986;DHT22;5546;48.714;8.738;2023-04-03T08:41:35;8.50;76.30
10986;DHT22;5546;48.714;8.738;2023-04-03T08:44:23;9.00;74.80
10986;DHT22;5546;48.714;8.738;2023-04-03T08:49:49;8.80;75.00
10986;DHT22;5546;48.714;8.738;2023-04-03T08:52:44;8.30;77.60
10986;DHT22;5546;48.714;8.738;2023-04-03T08:55:19;7.80;77.50
10986;DHT22;5546;48.714;8.738;2023-04-03T08:57:48;8.20;77.40
10986;DHT22;5546;48.714;8.738;2023-04-03T09:00:21;8.70;75.60
10986;DHT22;5546;48.714;8.738;2023-04-03T09:02:50;8.90;76.40
10986;DHT22;5546;48.714;8.738;2023-04-03T09:08:23;9.30;73.90
10986;DHT22;5546;48.714;8.738;2023-04-03T09:11:41;9.20;73.60
10986;DHT22;5546;48.714;8.738;2023-04-03T09:16:20;8.80;75.80
10986;DHT22;5546;48.714;8.738;2023-04-03T09:18:51;9.40;75.00
10986;DHT22;5546;48.714;8.738;2023-04-03T09:21:32;10.10;72.10
10986;DHT22;5546;48.714;8.738;2023-04-03T09:24:01;10.50;71.60
10986;DHT22;5546;48.714;8.738;2023-04-03T09:26:34;11.10;69.20
10986;DHT22;5546;48.714;8.738;2023-04-03T09:29:07;11.00;69.10
10986;DHT22;5546;48.714;8.738;2023-04-03T09:31:39;10.10;70.30
10986;DHT22;5546;48.714;8.738;2023-04-03T09:36:53;9.30;72.00
10986;DHT22;5546;48.714;8.738;2023-04-03T09:39:22;9.30;73.10
10986;DHT22;5546;48.714;8.738;2023-04-03T09:42:17;10.10;71.10
10986;DHT22;5546;48.714;8.738;2023-04-03T09:44:53;10.00;69.20
10986;DHT22;5546;48.714;8.738;2023-04-03T09:52:42;9.70;70.50
10986;DHT22;5546;48.714;8.738;2023-04-03T09:55:17;10.20;66.90
10986;DHT22;5546;48.714;8.738;2023-04-03T09:57:46;10.00;66.60
10986;DHT22;5546;48.714;8.738;2023-04-03T10:02:51;9.40;69.70
10986;DHT22;5546;48.714;8.738;2023-04-03T10:05:35;9.80;70.30
10986;DHT22;5546;48.714;8.738;2023-04-03T10:10:44;9.30;69.20
10986;DHT22;5546;48.714;8.738;2023-04-03T10:15:42;9.50;66.50
10986;DHT22;5546;48.714;8.738;2023-04-03T10:20:47;10.20;66.10
10986;DHT22;5546;48.714;8.738;2023-04-03T10:23:26;9.70;64.90
10986;DHT22;5546;48.714;8.738;2023-04-03T10:28:52;9.00;65.90
10986;DHT22;5546;48.714;8.738;2023-04-03T10:31:29;9.10;66.60
10986;DHT22;5546;48.714;8.738;2023-04-03T10:34:14;9.30;68.00
10986;DHT22;5546;48.714;8.738;2023-04-03T10:42:28;10.40;65.70
10986;DHT22;5546;48.714;8.738;2023-04-03T10:48:11;10.50;63.30
10986;DHT22;5546;48.714;8.738;2023-04-03T10:51:00;9.60;66.60
10986;DHT22;5546;48.714;8.738;2023-04-03T10:53:51;9.90;63.70
10986;DHT22;5546;48.714;8.738;2023-04-03T10:56:24;9.50;65.40
10986;DHT22;5546;48.714;8.738;2023-04-03T10:58:56;9.60;66.90
10986;DHT22;5546;48.714;8.738;2023-04-03T11:01:26;9.70;65.30
10986;DHT22;5546;48.714;8.738;2023-04-03T11:03:56;9.40;66.30
10986;DHT22;5546;48.714;8.738;2023-04-03T11:06:25;9.80;65.20
10986;DHT22;5546;48.714;8.738;2023-04-03T11:09:18;9.90;65.30
10986;DHT22;5546;48.714;8.738;2023-04-03T11:11:45;9.60;64.50
10986;DHT22;5546;48.714;8.738;2023-04-03T11:14:31;9.80;64.30
10986;DHT22;5546;48.714;8.738;2023-04-03T11:19:56;10.30;63.70
10986;DHT22;5546;48.714;8.738;2023-04-03T11:22:33;9.70;64.40
10986;DHT22;5546;48.714;8.738;2023-04-03T11:27:46;9.30;64.90
10986;DHT22;5546;48.714;8.738;2023-04-03T11:30:22;9.40;64.50
10986;DHT22;5546;48.714;8.738;2023-04-03T11:33:10;9.30;64.80
10986;DHT22;5546;48.714;8.738;2023-04-03T11:35:43;9.40;65.00
10986;DHT22;5546;48.714;8.738;2023-04-03T11:38:17;9.50;65.50
10986;DHT22;5546;48.714;8.738;2023-04-03T11:40:45;9.20;64.60
10986;DHT22;5546;48.714;8.738;2023-04-03T11:43:23;8.50;66.20
10986;DHT22;5546;48.714;8.738;2023-04-03T11:51:00;9.50;63.30
10986;DHT22;5546;48.714;8.738;2023-04-03T11:53:37;9.30;63.60
10986;DHT22;5546;48.714;8.738;2023-04-03T12:01:53;9.40;64.20
10986;DHT22;5546;48.714;8.738;2023-04-03T12:04:20;8.80;64.30
10986;DHT22;5546;48.714;8.738;2023-04-03T12:09:32;8.70;64.90
10986;DHT22;5546;48.714;8.738;2023-04-03T12:12:01;8.50;66.00
10986;DHT22;5546;48.714;8.738;2023-04-03T12:14:46;9.00;64.90
10986;DHT22;5546;48.714;8.738;2023-04-03T12:17:25;9.30;63.00
10986;DHT22;5546;48.714;8.738;2023-04-03T12:19:51;8.70;63.70
10986;DHT22;5546;48.714;8.738;2023-04-03T12:22:20;8.80;64.70
10986;DHT22;5546;48.714;8.738;2023-04-03T12:24:51;9.20;64.50
10986;DHT22;5546;48.714;8.738;2023-04-03T12:27:40;9.80;63.50
10986;DHT22;5546;48.714;8.738;2023-04-03T12:30:14;10.00;62.90
10986;DHT22;5546;48.714;8.738;2023-04-03T12:38:33;9.00;63.50
10986;DHT22;5546;48.714;8.738;2023-04-03T12:43:59;8.70;65.60
10986;DHT22;5546;48.714;8.738;2023-04-03T12:46:36;9.00;63.40
10986;DHT22;5546;48.714;8.738;2023-04-03T12:51:58;8.80;63.70
10986;DHT22;5546;48.714;8.738;2023-04-03T12:54:37;8.70;64.60
10986;DHT22;5546;48.714;8.738;2023-04-03T12:57:12;9.40;63.60
10986;DHT22;5546;48.714;8.738;2023-04-03T12:59:38;9.40;63.60
10986;DHT22;5546;48.714;8.738;2023-04-03T13:02:16;9.00;63.40
10986;DHT22;5546;48.714;8.738;2023-04-03T13:04:42;9.30;63.20
10986;DHT22;5546;48.714;8.738;2023-04-03T13:07:20;9.70;61.20
10986;DHT22;5546;48.714;8.738;2023-04-03T13:09:56;10.00;60.40
10986;DHT22;5546;48.714;8.738;2023-04-03T13:12:21;10.20;59.40
10986;DHT22;5546;48.714;8.738;2023-04-03T13:14:58;10.50;60.70
10986;DHT22;5546;48.714;8.738;2023-04-03T13:17:25;10.50;59.30
10986;DHT22;5546;48.714;8.738;2023-04-03T13:19:51;10.00;59.30
10986;DHT22;5546;48.714;8.738;2023-04-03T13:24:52;9.70;60.10
10986;DHT22;5546;48.714;8.738;2023-04-03T13:27:18;10.10;59.50
10986;DHT22;5546;48.714;8.738;2023-04-03T13:29:52;10.20;58.50
10986;DHT22;5546;48.714;8.738;2023-04-03T13:32:25;9.80;57.80
10986;DHT22;5546;48.714;8.738;2023-04-03T13:34:51;9.70;57.30
10986;DHT22;5546;48.714;8.738;2023-04-03T13:37:25;9.40;57.80
10986;DHT22;5546;48.714;8.738;2023-04-03T13:42:36;10.40;58.40
10986;DHT22;5546;48.714;8.738;2023-04-03T13:47:44;9.60;58.40
10986;DHT22;5546;48.714;8.738;2023-04-03T13:52:49;9.90;58.20
10986;DHT22;5546;48.714;8.738;2023-04-03T13:55:26;9.60;58.50
10986;DHT22;5546;48.714;8.738;2023-04-03T13:57:59;9.10;58.90
10986;DHT22;5546;48.714;8.738;2023-04-03T14:00:30;9.20;59.50
10986;DHT22;5546;48.714;8.738;2023-04-03T14:02:57;9.50;58.50
10986;DHT22;5546;48.714;8.738;2023-04-03T14:05:23;9.60;59.30
10986;DHT22;5546;48.714;8.738;2023-04-03T14:07:51;10.10;59.30
10986;DHT22;5546;48.714;8.738;2023-04-03T14:10:17;10.60;58.70
10986;DHT22;5546;48.714;8.738;2023-04-03T14:12:42;10.70;57.30
10986;DHT22;5546;48.714;8.738;2023-04-03T14:15:22;10.90;58.30
10986;DHT22;5546;48.714;8.738;2023-04-03T14:17:50;10.80;55.70
10986;DHT22;5546;48.714;8.738;2023-04-03T14:20:19;10.30;57.90
10986;DHT22;5546;48.714;8.738;2023-04-03T14:25:12;13.50;54.50
10986;DHT22;5546;48.714;8.738;2023-04-03T14:27:41;14.60;49.70
10986;DHT22;5546;48.714;8.738;2023-04-03T14:30:14;14.10;50.70
10986;DHT22;5546;48.714;8.738;2023-04-03T14:32:41;14.20;51.10
10986;DHT22;5546;48.714;8.738;2023-04-03T14:35:06;13.50;49.70
10986;DHT22;5546;48.714;8.738;2023-04-03T14:37:32;13.50;50.20
10986;DHT22;5546;48.714;8.738;2023-04-03T14:40:00;12.40;52.70
10986;DHT22;5546;48.714;8.738;2023-04-03T14:42:29;11.90;53.00
10986;DHT22;5546;48.714;8.738;2023-04-03T14:44:57;11.60;54.50
10986;DHT22;5546;48.714;8.738;2023-04-03T14:47:28;12.10;54.90
10986;DHT22;5546;48.714;8.738;2023-04-03T14:49:54;12.10;52.20
10986;DHT22;5546;48.714;8.738;2023-04-03T14:52:24;11.50;52.90
10986;DHT22;5546;48.714;8.738;2023-04-03T14:54:51;10.80;53.60
10986;DHT22;5546;48.714;8.738;2023-04-03T14:57:17;10.30;54.10
10986;DHT22;5546;48.714;8.738;2023-04-03T14:59:46;9.40;54.60
10986;DHT22;5546;48.714;8.738;2023-04-03T15:02:31;9.20;56.40
10986;DHT22;5546;48.714;8.738;2023-04-03T15:04:58;10.40;55.50
10986;DHT22;5546;48.714;8.738;2023-04-03T15:07:26;10.60;54.40
10986;DHT22;5546;48.714;8.738;2023-04-03T15:12:18;10.80;53.60
10986;DHT22;5546;48.714;8.738;2023-04-03T15:17:16;11.00;54.10
10986;DHT22;5546;48.714;8.738;2023-04-03T15:19:43;10.90;55.30
10986;DHT22;5546;48.714;8.738;2023-04-03T15:22:14;10.90;54.90
10986;DHT22;5546;48.714;8.738;2023-04-03T15:24:40;11.20;54.80
10986;DHT22;5546;48.714;8.738;2023-04-03T15:27:06;11.10;56.10
10986;DHT22;5546;48.714;8.738;2023-04-03T15:29:32;11.00;55.70
10986;DHT22;5546;48.714;8.738;2023-04-03T15:31:57;10.90;56.50
10986;DHT22;5546;48.714;8.738;2023-04-03T15:34:23;11.10;55.30
10986;DHT22;5546;48.714;8.738;2023-04-03T15:36:49;10.90;56.00
10986;DHT22;5546;48.714;8.738;2023-04-03T15:41:41;10.10;55.70
10986;DHT22;5546;48.714;8.738;2023-04-03T15:44:07;10.20;56.30
10986;DHT22;5546;48.714;8.738;2023-04-03T15:46:33;10.40;56.50
10986;DHT22;5546;48.714;8.738;2023-04-03T15:48:58;10.60;55.20
10986;DHT22;5546;48.714;8.738;2023-04-03T15:51:24;10.60;54.70
10986;DHT22;5546;48.714;8.738;2023-04-03T15:56:15;10.90;55.50
10986;DHT22;5546;48.714;8.738;2023-04-03T15:58:41;11.40;53.70
10986;DHT22;5546;48.714;8.738;2023-04-03T16:01:09;11.40;53.90
10986;DHT22;5546;48.714;8.738;2023-04-03T16:03:35;10.50;55.50
10986;DHT22;5546;48.714;8.738;2023-04-03T16:08:27;10.40;56.50
10986;DHT22;5546;48.714;8.738;2023-04-03T16:13:19;10.00;57.20
10986;DHT22;5546;48.714;8.738;2023-04-03T16:15:44;10.00;56.40
10986;DHT22;5546;48.714;8.738;2023-04-03T16:18:10;9.80;57.00
10986;DHT22;5546;48.714;8.738;2023-04-03T16:20:36;9.60;57.70
10986;DHT22;5546;48.714;8.738;2023-04-03T16:23:02;9.80;58.00
10986;DHT22;5546;48.714;8.738;2023-04-03T16:25:28;9.60;55.10
10986;DHT22;5546;48.714;8.738;2023-04-03T16:27:53;9.10;55.60
10986;DHT22;5546;48.714;8.738;2023-04-03T16:30:19;9.40;55.90
10986;DHT22;5546;48.714;8.738;2023-04-03T16:32:45;9.80;55.20
10986;DHT22;5546;48.714;8.738;2023-04-03T16:35:10;10.20;56.20
10986;DHT22;5546;48.714;8.738;2023-04-03T16:37:36;10.30;54.50
10986;DHT22;5546;48.714;8.738;2023-04-03T16:40:03;10.30;54.50
10986;DHT22;5546;48.714;8.738;2023-04-03T16:44:55;9.10;56.40
10986;DHT22;5546;48.714;8.738;2023-04-03T16:52:13;9.20;56.90
10986;DHT22;5546;48.714;8.738;2023-04-03T16:57:05;9.00;57.30
10986;DHT22;5546;48.714;8.738;2023-04-03T16:59:30;9.30;56.30
10986;DHT22;5546;48.714;8.738;2023-04-03T17:11:40;9.10;60.90
10986;DHT22;5546;48.714;8.738;2023-04-03T17:14:06;8.80;60.20
10986;DHT22;5546;48.714;8.738;2023-04-03T17:16:33;8.40;61.10
10986;DHT22;5546;48.714;8.738;2023-04-03T17:19:00;8.30;58.60
10986;DHT22;5546;48.714;8.738;2023-04-03T17:21:26;8.80;59.10
10986;DHT22;5546;48.714;8.738;2023-04-03T17:23:55;9.40;57.80
10986;DHT22;5546;48.714;8.738;2023-04-03T17:26:25;9.50;56.40
10986;DHT22;5546;48.714;8.738;2023-04-03T17:28:51;9.10;56.70
10986;DHT22;5546;48.714;8.738;2023-04-03T17:31:17;9.10;57.40
10986;DHT22;5546;48.714;8.738;2023-04-03T17:33:43;9.30;57.30
10986;DHT22;5546;48.714;8.738;2023-04-03T17:38:36;9.20;57.50
10986;DHT22;5546;48.714;8.738;2023-04-03T17:41:04;9.10;57.40
10986;DHT22;5546;48.714;8.738;2023-04-03T17:43:30;8.90;59.10
10986;DHT22;5546;48.714;8.738;2023-04-03T17:46:01;8.70;58.70
10986;DHT22;5546;48.714;8.738;2023-04-03T17:48:31;8.70;59.20
10986;DHT22;5546;48.714;8.738;2023-04-03T17:50:56;8.60;58.00
10986;DHT22;5546;48.714;8.738;2023-04-03T17:55:48;8.10;59.40
10986;DHT22;5546;48.714;8.738;2023-04-03T17:58:14;7.90;62.60
10986;DHT22;5546;48.714;8.738;2023-04-03T18:00:40;8.20;63.90
10986;DHT22;5546;48.714;8.738;2023-04-03T18:07:58;7.90;63.80
10986;DHT22;5546;48.714;8.738;2023-04-03T18:12:51;8.40;63.60
10986;DHT22;5546;48.714;8.738;2023-04-03T18:17:43;8.50;62.40
10986;DHT22;5546;48.714;8.738;2023-04-03T18:20:11;8.20;65.70
10986;DHT22;5546;48.714;8.738;2023-04-03T18:22:39;8.40;63.40
10986;DHT22;5546;48.714;8.738;2023-04-03T18:25:05;8.30;66.80
10986;DHT22;5546;48.714;8.738;2023-04-03T18:27:31;8.50;63.80
10986;DHT22;5546;48.714;8.738;2023-04-03T18:30:01;8.50;65.30
10986;DHT22;5546;48.714;8.738;2023-04-03T18:34:58;8.60;62.90
10986;DHT22;5546;48.714;8.738;2023-04-03T18:37:24;8.70;62.80
10986;DHT22;5546;48.714;8.738;2023-04-03T18:39:50;8.50;65.60
10986;DHT22;5546;48.714;8.738;2023-04-03T18:42:19;8.30;63.80
10986;DHT22;5546;48.714;8.738;2023-04-03T18:44:48;8.40;63.50
10986;DHT22;5546;48.714;8.738;2023-04-03T18:49:41;8.70;62.90
10986;DHT22;5546;48.714;8.738;2023-04-03T18:52:07;8.90;63.80
10986;DHT22;5546;48.714;8.738;2023-04-03T18:57:02;8.40;62.70
10986;DHT22;5546;48.714;8.738;2023-04-03T19:01:54;8.40;64.60
10986;DHT22;5546;48.714;8.738;2023-04-03T19:11:38;8.40;65.60
10986;DHT22;5546;48.714;8.738;2023-04-03T19:14:03;8.20;66.30
10986;DHT22;5546;48.714;8.738;2023-04-03T19:16:31;7.90;64.30
10986;DHT22;5546;48.714;8.738;2023-04-03T19:18:58;7.60;65.50
10986;DHT22;5546;48.714;8.738;2023-04-03T19:21:23;7.40;64.90
10986;DHT22;5546;48.714;8.738;2023-04-03T19:23:49;7.70;65.30